New Bedford, Ohio
Current Conditions -  °F | °C
As of 5:53 PM on Friday 19 Dec 2014 (Local Time) from KPHD Reporting Station
Overcast Overcast  
Wind Chill: 31°   Ceiling: 2600
Heat Index: 31°   Visibility: 10mi
Dew Point: 23°   Wind: 3mph
Humidity: 72%   Direction: 270°W
Pressure: 30.27"   Gusts: NA
Location:  40.3648°N, 81.765°W
Report Text: KPHD 192253Z AUTO 27003KT 10SM OVC026 M01/M05 A3027 RMK AO2 SLP260 T10061050
Loading
Personal Weather Stations






























Interactive Weather Map New forecast layout! Learn more

10-Day Weather Forecast

Advertisements
Track Severe Weather on mobile